createdAt,value
2018-12-24T00:01:52.045Z,96.90
2018-12-24T00:04:18.985Z,96.90
2018-12-24T00:06:45.932Z,96.80
2018-12-24T00:09:12.916Z,96.80
2018-12-24T00:11:39.887Z,96.80
2018-12-24T00:14:06.836Z,96.80
2018-12-24T00:16:33.787Z,96.70
2018-12-24T00:19:00.715Z,96.60
2018-12-24T00:21:27.660Z,96.50
2018-12-24T00:23:54.627Z,96.60
2018-12-24T00:26:21.557Z,96.60
2018-12-24T00:28:48.500Z,96.70
2018-12-24T00:31:15.467Z,96.50
2018-12-24T00:33:42.402Z,96.60
2018-12-24T00:36:09.344Z,96.60
2018-12-24T00:38:36.296Z,96.50
2018-12-24T00:41:03.247Z,96.40
2018-12-24T00:43:30.171Z,96.70
2018-12-24T00:45:57.132Z,96.50
2018-12-24T00:48:24.084Z,96.70
2018-12-24T00:50:51.035Z,96.70
2018-12-24T00:53:17.998Z,96.90
2018-12-24T00:55:44.951Z,96.90
2018-12-24T00:58:11.937Z,97.10
2018-12-24T01:00:39.433Z,97.30
2018-12-24T01:03:06.380Z,97.30
2018-12-24T01:05:33.308Z,97.40
2018-12-24T01:08:00.287Z,97.40
2018-12-24T01:10:27.236Z,97.40
2018-12-24T01:12:54.179Z,97.30
2018-12-24T01:15:21.145Z,97.30
2018-12-24T01:17:48.071Z,97.30
2018-12-24T01:20:15.043Z,97.30
2018-12-24T01:22:42.003Z,97.20
2018-12-24T01:25:08.952Z,97.10
2018-12-24T01:27:35.893Z,97.10
2018-12-24T01:30:02.937Z,97.10
2018-12-24T01:32:29.884Z,96.90
2018-12-24T01:34:56.849Z,96.80
2018-12-24T01:37:23.804Z,97.00
2018-12-24T01:39:50.745Z,96.80
2018-12-24T01:42:17.698Z,96.70
2018-12-24T01:44:44.649Z,96.60
2018-12-24T01:47:11.606Z,96.90
2018-12-24T01:49:38.549Z,97.30
2018-12-24T01:52:05.690Z,97.20
2018-12-24T01:54:32.521Z,97.40
2018-12-24T01:56:59.479Z,97.50
2018-12-24T01:59:26.449Z,97.60
2018-12-24T02:01:53.943Z,97.90
2018-12-24T02:04:20.888Z,98.30
2018-12-24T02:06:47.864Z,98.50
2018-12-24T02:09:14.818Z,98.70
2018-12-24T02:11:41.746Z,97.20
2018-12-24T02:14:08.699Z,94.20
2018-12-24T02:16:35.643Z,94.00
2018-12-24T02:19:02.592Z,95.20
2018-12-24T02:21:29.532Z,96.20
2018-12-24T02:23:56.480Z,96.80
2018-12-24T02:26:23.411Z,96.90
2018-12-24T02:28:50.381Z,97.80
2018-12-24T02:31:17.315Z,97.50
2018-12-24T02:33:44.256Z,97.70
2018-12-24T02:36:11.224Z,97.70
2018-12-24T02:38:38.181Z,97.90
2018-12-24T02:41:05.115Z,98.10
2018-12-24T02:43:32.099Z,98.00
2018-12-24T02:45:59.067Z,97.70
2018-12-24T02:48:26.024Z,97.80
2018-12-24T02:50:52.989Z,97.90
2018-12-24T02:53:19.932Z,98.20
2018-12-24T02:55:46.882Z,98.20
2018-12-24T02:58:13.837Z,98.20
2018-12-24T03:00:40.827Z,98.10
2018-12-24T03:03:08.256Z,98.20
2018-12-24T03:05:35.212Z,98.60
2018-12-24T03:08:02.168Z,98.50
2018-12-24T03:10:29.101Z,98.30
2018-12-24T03:13:02.550Z,98.20
2018-12-24T03:15:22.995Z,98.10
2018-12-24T03:17:50.071Z,98.20
2018-12-24T03:20:17.096Z,98.00
2018-12-24T03:22:44.028Z,98.10
2018-12-24T03:25:10.986Z,98.20
2018-12-24T03:27:37.949Z,98.10
2018-12-24T03:30:04.905Z,98.20
2018-12-24T03:32:31.836Z,97.70
2018-12-24T03:34:58.800Z,97.90
2018-12-24T03:37:25.740Z,97.80
2018-12-24T03:39:52.679Z,97.50
2018-12-24T03:42:19.638Z,97.40
2018-12-24T03:44:46.577Z,97.00
2018-12-24T03:47:13.515Z,96.90
2018-12-24T03:49:40.473Z,96.90
2018-12-24T03:52:07.427Z,96.90
2018-12-24T03:54:34.372Z,96.80
2018-12-24T03:57:01.338Z,96.80
2018-12-24T03:59:28.269Z,96.30
2018-12-24T04:01:55.203Z,96.70
2018-12-24T04:04:22.876Z,96.10
2018-12-24T04:06:49.824Z,96.50
2018-12-24T04:09:16.753Z,96.30
2018-12-24T04:11:43.717Z,96.30
2018-12-24T04:14:10.659Z,96.60
2018-12-24T04:16:37.640Z,96.80
2018-12-24T04:19:04.617Z,96.50
2018-12-24T04:21:31.557Z,96.10
2018-12-24T04:23:58.510Z,96.20
2018-12-24T04:26:25.474Z,96.60
2018-12-24T04:28:52.413Z,96.30
2018-12-24T04:31:19.356Z,96.50
2018-12-24T04:33:46.307Z,96.20
2018-12-24T04:36:13.242Z,96.30
2018-12-24T04:38:40.177Z,96.40
2018-12-24T04:41:07.143Z,96.80
2018-12-24T04:43:34.089Z,96.70
2018-12-24T04:46:01.031Z,96.60
2018-12-24T04:48:27.999Z,97.00
2018-12-24T04:50:54.931Z,97.00
2018-12-24T04:53:21.893Z,97.20
2018-12-24T04:55:48.845Z,97.30
2018-12-24T04:58:15.792Z,96.60
2018-12-24T05:00:42.756Z,97.10
2018-12-24T05:03:09.829Z,97.20
2018-12-24T05:05:37.168Z,97.20
2018-12-24T05:08:04.132Z,97.30
2018-12-24T05:10:31.104Z,96.80
2018-12-24T05:12:58.041Z,96.80
2018-12-24T05:15:24.984Z,96.70
2018-12-24T05:17:52.009Z,96.70
2018-12-24T05:20:18.954Z,96.50
2018-12-24T05:22:45.911Z,96.50
2018-12-24T05:25:12.910Z,96.50
2018-12-24T05:27:39.800Z,96.60
2018-12-24T05:30:06.757Z,96.90
2018-12-24T05:32:33.705Z,96.80
2018-12-24T05:35:00.653Z,96.70
2018-12-24T05:37:27.689Z,96.50
2018-12-24T05:39:54.559Z,96.00
2018-12-24T05:42:21.488Z,96.40
2018-12-24T05:44:48.446Z,95.90
2018-12-24T05:47:15.421Z,96.60
2018-12-24T05:49:42.364Z,96.60
2018-12-24T05:52:09.330Z,96.30
2018-12-24T05:54:36.296Z,96.20
2018-12-24T05:57:03.244Z,95.80
2018-12-24T05:59:30.183Z,96.00
2018-12-24T06:01:57.144Z,95.90
2018-12-24T06:04:24.082Z,96.10
2018-12-24T06:06:51.470Z,95.50
2018-12-24T06:09:18.436Z,96.10
2018-12-24T06:11:45.385Z,95.70
2018-12-24T06:14:12.316Z,95.60
2018-12-24T06:16:39.315Z,95.90
2018-12-24T06:19:06.281Z,95.60
2018-12-24T06:21:33.235Z,95.60
2018-12-24T06:24:00.192Z,95.30
2018-12-24T06:26:27.125Z,95.20
2018-12-24T06:28:54.064Z,95.90
2018-12-24T06:31:21.044Z,95.70
2018-12-24T06:33:47.987Z,95.60
2018-12-24T06:36:15.217Z,94.90
2018-12-24T06:38:42.196Z,95.90
2018-12-24T06:41:09.214Z,95.80
2018-12-24T06:43:36.115Z,95.50
2018-12-24T06:46:03.067Z,95.30
2018-12-24T06:48:30.029Z,95.20
2018-12-24T06:50:56.991Z,94.80
2018-12-24T06:53:23.943Z,95.60
2018-12-24T06:55:50.886Z,95.00
2018-12-24T06:58:17.832Z,95.30
2018-12-24T07:00:44.771Z,95.40
2018-12-24T07:03:11.715Z,95.20
2018-12-24T07:05:38.651Z,95.00
2018-12-24T07:08:06.102Z,94.90
2018-12-24T07:10:33.043Z,94.80
2018-12-24T07:12:59.975Z,94.70
2018-12-24T07:15:26.952Z,95.20
2018-12-24T07:17:53.884Z,94.60
2018-12-24T07:20:20.849Z,94.70
2018-12-24T07:22:47.795Z,94.90
2018-12-24T07:25:14.741Z,94.50
2018-12-24T07:27:41.675Z,94.70
2018-12-24T07:30:08.619Z,94.10
2018-12-24T07:32:35.572Z,95.10
2018-12-24T07:35:02.512Z,94.30
2018-12-24T07:37:29.463Z,94.50
2018-12-24T07:39:56.462Z,94.80
2018-12-24T07:42:24.413Z,94.60
2018-12-24T07:44:51.388Z,94.60
2018-12-24T07:47:18.323Z,94.30
2018-12-24T07:49:45.278Z,94.50
2018-12-24T07:52:12.259Z,94.80
2018-12-24T07:54:39.193Z,94.60
2018-12-24T07:57:06.145Z,95.00
2018-12-24T07:59:33.116Z,94.90
2018-12-24T08:02:00.077Z,94.70
2018-12-24T08:04:28.854Z,95.00
2018-12-24T08:06:53.992Z,94.70
2018-12-24T08:09:21.257Z,94.80
2018-12-24T08:11:48.206Z,94.70
2018-12-24T08:14:15.196Z,94.40
2018-12-24T08:16:42.137Z,94.20
2018-12-24T08:19:09.132Z,94.70
2018-12-24T08:21:36.091Z,94.50
2018-12-24T08:24:03.051Z,94.40
2018-12-24T08:26:30.020Z,94.30
2018-12-24T08:28:56.982Z,94.20
2018-12-24T08:31:23.949Z,94.00
2018-12-24T08:33:50.897Z,93.80
2018-12-24T08:36:18.224Z,94.00
2018-12-24T08:38:45.214Z,94.00
2018-12-24T08:41:12.233Z,94.20
2018-12-24T08:43:39.197Z,94.20
2018-12-24T08:46:06.122Z,93.90
2018-12-24T08:48:33.075Z,93.70
2018-12-24T08:51:00.028Z,93.50
2018-12-24T08:53:26.968Z,93.40
2018-12-24T08:55:53.912Z,93.80
2018-12-24T08:58:20.883Z,93.70
2018-12-24T09:00:47.816Z,93.90
2018-12-24T09:03:14.773Z,94.50
2018-12-24T09:05:41.773Z,93.60
2018-12-24T09:08:08.723Z,93.60
2018-12-24T09:10:36.005Z,93.70
2018-12-24T09:13:02.964Z,94.10
2018-12-24T09:15:29.969Z,94.20
2018-12-24T09:17:56.920Z,93.90
2018-12-24T09:20:23.904Z,93.20
2018-12-24T09:22:50.851Z,92.50
2018-12-24T09:25:17.837Z,92.70
2018-12-24T09:27:44.900Z,92.10
2018-12-24T09:30:15.188Z,92.30
2018-12-24T09:32:42.123Z,92.30
2018-12-24T09:35:09.096Z,92.70
2018-12-24T09:37:36.025Z,91.90
2018-12-24T09:40:03.128Z,91.60
2018-12-24T09:42:30.108Z,91.70
2018-12-24T09:44:59.074Z,91.50
2018-12-24T09:47:24.105Z,91.70
2018-12-24T09:49:51.101Z,91.90
2018-12-24T09:52:18.423Z,91.60
2018-12-24T09:54:45.387Z,94.90
2018-12-24T09:57:12.451Z,91.30
2018-12-24T09:59:39.463Z,90.90
2018-12-24T10:02:06.447Z,91.10
2018-12-24T10:04:37.080Z,90.50
2018-12-24T10:07:30.996Z,90.80
2018-12-24T10:09:57.971Z,91.10
2018-12-24T10:12:25.300Z,91.10
2018-12-24T10:14:52.243Z,91.70
2018-12-24T10:17:19.231Z,91.90
2018-12-24T10:19:46.172Z,92.60
2018-12-24T10:22:13.120Z,92.20
2018-12-24T10:24:40.221Z,92.00
2018-12-24T10:27:07.377Z,91.70
2018-12-24T10:29:34.378Z,91.30
2018-12-24T10:32:01.417Z,91.70
2018-12-24T10:34:28.424Z,93.00
2018-12-24T10:36:55.368Z,91.90
2018-12-24T10:39:22.353Z,91.10
2018-12-24T10:41:49.334Z,91.60
2018-12-24T10:44:16.353Z,91.10
2018-12-24T10:46:43.348Z,90.60
2018-12-24T10:49:10.334Z,90.30
2018-12-24T10:51:37.263Z,89.00
2018-12-24T10:54:04.231Z,90.30
2018-12-24T10:56:31.324Z,88.90
2018-12-24T10:58:58.348Z,87.60
2018-12-24T11:01:25.319Z,87.50
2018-12-24T11:03:52.392Z,89.10
2018-12-24T11:06:19.373Z,90.00
2018-12-24T11:08:46.456Z,90.50
2018-12-24T11:11:13.492Z,88.90
2018-12-24T11:13:41.097Z,86.10
2018-12-24T11:16:08.060Z,85.70
2018-12-24T11:18:35.032Z,85.90
2018-12-24T11:21:01.976Z,87.10
2018-12-24T11:23:29.060Z,86.40
2018-12-24T11:25:56.032Z,87.70
2018-12-24T11:28:22.970Z,88.20
2018-12-24T11:30:50.365Z,88.50
2018-12-24T11:33:17.318Z,88.60
2018-12-24T11:35:44.286Z,90.20
2018-12-24T11:38:11.243Z,90.10
2018-12-24T11:40:38.176Z,91.00
2018-12-24T11:43:05.141Z,90.90
2018-12-24T11:45:34.122Z,91.10
2018-12-24T11:47:59.021Z,91.20
2018-12-24T11:50:25.992Z,91.00
2018-12-24T11:52:53.003Z,91.60
2018-12-24T11:55:19.943Z,91.50
2018-12-24T11:57:47.499Z,91.20
2018-12-24T12:00:13.859Z,91.00
2018-12-24T12:02:40.988Z,90.80
2018-12-24T12:05:07.948Z,90.80
2018-12-24T12:07:34.974Z,90.80
2018-12-24T12:10:01.912Z,91.30
2018-12-24T12:12:28.883Z,90.60
2018-12-24T12:14:56.241Z,91.30
2018-12-24T12:17:23.205Z,90.20
2018-12-24T12:19:50.196Z,89.90
2018-12-24T12:22:17.240Z,89.70
2018-12-24T12:24:44.187Z,90.10
2018-12-24T12:27:11.144Z,88.90
2018-12-24T12:29:38.217Z,88.70
2018-12-24T12:32:05.307Z,86.50
2018-12-24T12:34:32.359Z,83.90
2018-12-24T12:36:59.544Z,83.70
2018-12-24T12:39:26.554Z,83.70
2018-12-24T12:41:53.575Z,83.40
2018-12-24T12:44:20.512Z,83.90
2018-12-24T12:46:47.455Z,85.70
2018-12-24T12:49:14.530Z,85.10
2018-12-24T12:51:41.443Z,84.70
2018-12-24T12:54:08.451Z,84.90
2018-12-24T12:56:35.400Z,85.80
2018-12-24T12:59:02.352Z,85.50
2018-12-24T13:01:29.335Z,84.70
2018-12-24T13:03:56.290Z,82.60
2018-12-24T13:06:23.301Z,81.70
2018-12-24T13:08:50.249Z,83.10
2018-12-24T13:11:17.224Z,83.50
2018-12-24T13:13:44.209Z,83.00
2018-12-24T13:16:12.005Z,81.80
2018-12-24T13:18:39.011Z,80.50
2018-12-24T13:21:06.039Z,80.40
2018-12-24T13:23:32.991Z,79.40
2018-12-24T13:25:59.996Z,78.70
2018-12-24T13:28:27.382Z,76.80
2018-12-24T13:30:54.310Z,75.80
2018-12-24T13:33:21.265Z,74.40
2018-12-24T13:35:48.645Z,75.00
2018-12-24T13:38:16.255Z,75.30
2018-12-24T13:40:43.233Z,74.50
2018-12-24T13:43:10.216Z,73.30
2018-12-24T13:45:37.188Z,73.40
2018-12-24T13:48:04.168Z,74.00
2018-12-24T13:50:31.269Z,74.90
2018-12-24T13:52:58.245Z,74.90
2018-12-24T13:55:25.178Z,75.20
2018-12-24T13:57:52.116Z,77.30
2018-12-24T14:00:19.063Z,77.70
2018-12-24T14:02:46.028Z,79.10
2018-12-24T14:05:13.018Z,78.00
2018-12-24T14:07:39.960Z,80.10
2018-12-24T14:10:06.920Z,82.20
2018-12-24T14:12:33.949Z,82.10
2018-12-24T14:15:01.001Z,81.00
2018-12-24T14:17:28.265Z,82.30
2018-12-24T14:19:55.256Z,82.80
2018-12-24T14:22:22.179Z,84.90
2018-12-24T14:24:49.116Z,87.70
2018-12-24T14:27:16.093Z,87.40
2018-12-24T14:29:45.478Z,88.30
2018-12-24T14:32:10.869Z,88.80
2018-12-24T14:34:37.897Z,89.30
2018-12-24T14:37:04.884Z,90.40
2018-12-24T14:39:31.820Z,90.20
2018-12-24T14:41:58.824Z,90.10
2018-12-24T14:44:25.840Z,89.90
2018-12-24T14:46:52.820Z,90.00
2018-12-24T14:49:19.780Z,90.00
2018-12-24T14:51:46.758Z,89.80
2018-12-24T14:54:13.791Z,90.00
2018-12-24T14:56:40.767Z,90.10
2018-12-24T14:59:07.704Z,89.90
2018-12-24T15:01:34.718Z,90.20
2018-12-24T15:04:01.681Z,90.70
2018-12-24T15:06:28.658Z,90.30
2018-12-24T15:08:55.611Z,90.70
2018-12-24T15:11:22.617Z,90.30
2018-12-24T15:13:49.552Z,90.10
2018-12-24T15:16:16.515Z,90.40
2018-12-24T15:18:44.025Z,90.20
2018-12-24T15:21:10.968Z,90.30
2018-12-24T15:23:37.940Z,90.30
2018-12-24T15:26:04.965Z,90.00
2018-12-24T15:28:31.913Z,90.00
2018-12-24T15:30:58.978Z,90.00
2018-12-24T15:33:25.961Z,90.10
2018-12-24T15:35:52.952Z,88.20
2018-12-24T15:38:20.469Z,85.00
2018-12-24T15:40:47.380Z,86.90
2018-12-24T15:43:14.338Z,87.40
2018-12-24T15:45:41.306Z,88.20
2018-12-24T15:48:08.267Z,88.60
2018-12-24T15:50:35.285Z,90.60
2018-12-24T15:53:02.229Z,90.60
2018-12-24T15:55:29.208Z,90.40
2018-12-24T15:57:56.191Z,91.00
2018-12-24T16:00:23.204Z,91.50
2018-12-24T16:02:50.189Z,91.50
2018-12-24T16:05:17.252Z,91.20
2018-12-24T16:07:44.269Z,91.50
2018-12-24T16:10:11.252Z,91.50
2018-12-24T16:12:38.321Z,91.80
2018-12-24T16:15:05.352Z,91.00
2018-12-24T16:17:32.317Z,90.70
2018-12-24T16:19:59.456Z,90.80
2018-12-24T16:22:26.401Z,90.50
2018-12-24T16:24:53.348Z,89.90
2018-12-24T16:27:20.310Z,90.90
2018-12-24T16:29:47.245Z,91.10
2018-12-24T16:32:14.229Z,91.30
2018-12-24T16:34:41.193Z,90.50
2018-12-24T16:37:08.216Z,90.80
2018-12-24T16:39:35.188Z,91.00
2018-12-24T16:42:02.131Z,91.10
2018-12-24T16:44:29.083Z,91.30
2018-12-24T16:46:59.442Z,91.30
2018-12-24T16:49:22.996Z,91.40
2018-12-24T16:51:50.052Z,91.30
2018-12-24T16:54:17.013Z,91.60
2018-12-24T16:56:43.980Z,91.90
2018-12-24T16:59:10.924Z,91.80
2018-12-24T17:01:37.991Z,91.90
2018-12-24T17:04:04.941Z,91.40
2018-12-24T17:06:31.880Z,91.30
2018-12-24T17:09:00.177Z,91.70
2018-12-24T17:11:25.838Z,92.40
2018-12-24T17:13:52.775Z,92.50
2018-12-24T17:16:20.040Z,92.50
2018-12-24T17:18:46.984Z,92.70
2018-12-24T17:21:14.378Z,92.80
2018-12-24T17:23:41.324Z,92.10
2018-12-24T17:26:08.606Z,91.70
2018-12-24T17:28:35.562Z,91.40
2018-12-24T17:31:02.734Z,91.20
2018-12-24T17:33:29.716Z,91.70
2018-12-24T17:35:56.682Z,91.00
2018-12-24T17:38:23.648Z,91.20
2018-12-24T17:40:50.591Z,91.60
2018-12-24T17:43:17.554Z,91.90
2018-12-24T17:45:44.508Z,92.40
2018-12-24T17:48:11.444Z,92.50
2018-12-24T17:50:38.391Z,92.30
2018-12-24T17:53:05.383Z,91.70
2018-12-24T17:55:32.330Z,92.30
2018-12-24T17:57:59.288Z,91.70
2018-12-24T18:00:26.279Z,92.00
2018-12-24T18:02:53.241Z,92.00
2018-12-24T18:05:20.188Z,92.50
2018-12-24T18:07:47.158Z,92.50
2018-12-24T18:10:14.098Z,92.20
2018-12-24T18:12:41.040Z,92.20
2018-12-24T18:15:08.046Z,92.50
2018-12-24T18:17:34.988Z,92.20
2018-12-24T18:20:01.928Z,91.80
2018-12-24T18:22:29.567Z,91.40
2018-12-24T18:24:56.545Z,91.60
2018-12-24T18:27:24.385Z,92.80
2018-12-24T18:29:50.717Z,92.50
2018-12-24T18:32:17.661Z,92.40
2018-12-24T18:34:44.605Z,92.70
2018-12-24T18:37:11.571Z,92.50
2018-12-24T18:39:38.568Z,92.70
2018-12-24T18:42:05.536Z,92.50
2018-12-24T18:44:32.498Z,92.80
2018-12-24T18:46:59.523Z,92.80
2018-12-24T18:49:26.498Z,92.50
2018-12-24T18:51:53.468Z,92.80
2018-12-24T18:54:20.416Z,92.50
2018-12-24T18:56:47.381Z,92.50
2018-12-24T18:59:14.341Z,92.40
2018-12-24T19:01:41.309Z,92.80
2018-12-24T19:04:08.317Z,92.50
2018-12-24T19:06:35.293Z,92.60
2018-12-24T19:09:02.459Z,92.70
2018-12-24T19:11:29.416Z,92.60
2018-12-24T19:13:56.417Z,92.50
2018-12-24T19:16:23.364Z,92.40
2018-12-24T19:18:50.293Z,92.50
2018-12-24T19:21:17.298Z,92.50
2018-12-24T19:23:44.737Z,92.60
2018-12-24T19:26:11.704Z,92.60
2018-12-24T19:28:38.709Z,92.40
2018-12-24T19:31:05.656Z,92.50
2018-12-24T19:33:32.605Z,92.40
2018-12-24T19:35:59.646Z,92.50
2018-12-24T19:38:26.581Z,92.60
2018-12-24T19:40:53.526Z,92.50
2018-12-24T19:43:20.485Z,92.00
2018-12-24T19:45:47.529Z,92.30
2018-12-24T19:48:14.474Z,92.10
2018-12-24T19:50:41.582Z,92.50
2018-12-24T19:53:08.547Z,93.00
2018-12-24T19:55:35.390Z,92.90
2018-12-24T19:58:02.369Z,93.10
2018-12-24T20:00:29.365Z,92.80
2018-12-24T20:02:56.322Z,92.70
2018-12-24T20:05:23.320Z,93.00
2018-12-24T20:07:50.335Z,93.10
2018-12-24T20:10:17.308Z,92.80
2018-12-24T20:12:44.276Z,92.50
2018-12-24T20:15:11.228Z,92.30
2018-12-24T20:17:38.210Z,92.20
2018-12-24T20:20:05.169Z,92.00
2018-12-24T20:22:32.139Z,92.10
2018-12-24T20:24:59.332Z,92.20
2018-12-24T20:27:26.317Z,92.40
2018-12-24T20:29:53.293Z,92.50
2018-12-24T20:32:20.269Z,93.00
2018-12-24T20:34:47.233Z,92.70
2018-12-24T20:37:14.531Z,92.60
2018-12-24T20:39:41.673Z,92.40
2018-12-24T20:42:09.820Z,92.40
2018-12-24T20:44:36.752Z,92.10
2018-12-24T20:47:03.709Z,92.00
2018-12-24T20:49:30.684Z,92.30
2018-12-24T20:51:57.760Z,92.50
2018-12-24T20:54:24.695Z,92.60
2018-12-24T20:56:51.730Z,92.70
2018-12-24T20:59:18.661Z,92.30
2018-12-24T21:01:45.622Z,92.30
2018-12-24T21:04:12.575Z,92.00
2018-12-24T21:06:39.523Z,92.20
2018-12-24T21:09:07.748Z,92.00
2018-12-24T21:11:34.756Z,92.00
2018-12-24T21:14:02.084Z,92.20
2018-12-24T21:16:29.016Z,92.30
2018-12-24T21:18:55.983Z,91.80
2018-12-24T21:21:23.034Z,92.10
2018-12-24T21:23:49.896Z,92.00
2018-12-24T21:26:17.694Z,91.50
2018-12-24T21:28:44.667Z,91.90
2018-12-24T21:31:11.664Z,91.60
2018-12-24T21:33:38.643Z,91.60
2018-12-24T21:36:05.610Z,91.30
2018-12-24T21:38:32.617Z,90.70
2018-12-24T21:40:59.605Z,90.70
2018-12-24T21:43:26.548Z,90.80
2018-12-24T21:45:53.482Z,90.60
2018-12-24T21:48:23.947Z,90.60
2018-12-24T21:50:47.407Z,91.20
2018-12-24T21:53:14.341Z,91.00
2018-12-24T21:55:41.302Z,91.20
2018-12-24T21:58:08.312Z,90.90
2018-12-24T22:00:35.296Z,90.70
2018-12-24T22:03:02.310Z,90.80
2018-12-24T22:05:29.260Z,90.40
2018-12-24T22:07:56.205Z,90.60
2018-12-24T22:10:23.189Z,90.30
2018-12-24T22:12:50.123Z,90.30
2018-12-24T22:15:17.064Z,90.50
2018-12-24T22:17:44.036Z,90.10
2018-12-24T22:20:10.951Z,90.30
2018-12-24T22:22:37.896Z,90.20
2018-12-24T22:25:04.867Z,90.30
2018-12-24T22:27:32.499Z,89.90
2018-12-24T22:30:00.924Z,90.00
2018-12-24T22:32:27.876Z,90.20
2018-12-24T22:34:54.815Z,90.10
2018-12-24T22:37:21.768Z,90.10
2018-12-24T22:39:48.753Z,89.20
2018-12-24T22:42:15.728Z,89.80
2018-12-24T22:44:42.683Z,90.00
2018-12-24T22:47:09.740Z,90.10
2018-12-24T22:49:36.687Z,90.20
2018-12-24T22:52:03.637Z,90.40
2018-12-24T22:54:30.635Z,90.70
2018-12-24T22:56:57.587Z,90.70
2018-12-24T22:59:24.558Z,90.90
2018-12-24T23:01:51.520Z,91.50
2018-12-24T23:04:18.461Z,91.50
2018-12-24T23:06:45.389Z,90.90
2018-12-24T23:09:12.433Z,90.40
2018-12-24T23:11:39.377Z,90.40
2018-12-24T23:14:06.320Z,90.60
2018-12-24T23:16:33.297Z,90.90
2018-12-24T23:19:00.238Z,90.80
2018-12-24T23:21:27.183Z,90.40
2018-12-24T23:23:54.166Z,90.50
2018-12-24T23:26:21.099Z,90.40
2018-12-24T23:28:48.281Z,90.30
2018-12-24T23:31:15.247Z,90.20
2018-12-24T23:33:42.296Z,90.20
2018-12-24T23:36:09.159Z,90.30
2018-12-24T23:38:36.156Z,90.70
2018-12-24T23:41:03.123Z,90.70
2018-12-24T23:43:30.071Z,91.10
2018-12-24T23:45:57.026Z,91.30
2018-12-24T23:48:24.017Z,91.30
2018-12-24T23:50:50.964Z,91.30
2018-12-24T23:53:17.963Z,91.10
2018-12-24T23:55:50.715Z,91.70
2018-12-24T23:58:17.663Z,91.10
